sensor_id;sensor_type;location;lat;lon;timestamp;P1;durP1;ratioP1;P2;durP2;ratioP2
51384;SDS011;37478;55.682;37.462;2024-02-28T00:00:46;7.30;;;3.50;;
51384;SDS011;37478;55.682;37.462;2024-02-28T00:03:11;8.45;;;3.70;;
51384;SDS011;37478;55.682;37.462;2024-02-28T00:05:37;11.93;;;5.28;;
51384;SDS011;37478;55.682;37.462;2024-02-28T00:08:02;7.68;;;3.63;;
51384;SDS011;37478;55.682;37.462;2024-02-28T00:10:27;8.65;;;4.05;;
51384;SDS011;37478;55.682;37.462;2024-02-28T00:12:53;11.85;;;5.07;;
51384;SDS011;37478;55.682;37.462;2024-02-28T00:15:18;11.88;;;4.15;;
51384;SDS011;37478;55.682;37.462;2024-02-28T00:17:44;9.38;;;4.70;;
51384;SDS011;37478;55.682;37.462;2024-02-28T00:20:09;8.30;;;4.07;;
51384;SDS011;37478;55.682;37.462;2024-02-28T00:22:35;8.02;;;3.65;;
51384;SDS011;37478;55.682;37.462;2024-02-28T00:25:01;11.25;;;4.50;;
51384;SDS011;37478;55.682;37.462;2024-02-28T00:27:27;9.18;;;4.07;;
51384;SDS011;37478;55.682;37.462;2024-02-28T00:29:52;11.98;;;4.30;;
51384;SDS011;37478;55.682;37.462;2024-02-28T00:32:21;10.23;;;4.57;;
51384;SDS011;37478;55.682;37.462;2024-02-28T00:34:46;8.07;;;4.90;;
51384;SDS011;37478;55.682;37.462;2024-02-28T00:37:12;11.15;;;5.15;;
51384;SDS011;37478;55.682;37.462;2024-02-28T00:39:37;9.32;;;4.75;;
51384;SDS011;37478;55.682;37.462;2024-02-28T00:42:02;9.88;;;3.85;;
51384;SDS011;37478;55.682;37.462;2024-02-28T00:44:28;7.60;;;4.68;;
51384;SDS011;37478;55.682;37.462;2024-02-28T00:46:53;5.85;;;4.25;;
51384;SDS011;37478;55.682;37.462;2024-02-28T00:49:19;9.05;;;4.22;;
51384;SDS011;37478;55.682;37.462;2024-02-28T00:51:45;9.27;;;4.95;;
51384;SDS011;37478;55.682;37.462;2024-02-28T00:54:11;9.45;;;4.07;;
51384;SDS011;37478;55.682;37.462;2024-02-28T00:56:36;6.07;;;4.13;;
51384;SDS011;37478;55.682;37.462;2024-02-28T00:59:01;6.47;;;3.08;;
51384;SDS011;37478;55.682;37.462;2024-02-28T01:01:27;8.15;;;3.75;;
51384;SDS011;37478;55.682;37.462;2024-02-28T01:03:53;7.28;;;4.13;;
51384;SDS011;37478;55.682;37.462;2024-02-28T01:06:18;12.23;;;4.80;;
51384;SDS011;37478;55.682;37.462;2024-02-28T01:08:43;7.57;;;4.20;;
51384;SDS011;37478;55.682;37.462;2024-02-28T01:11:09;6.22;;;3.60;;
51384;SDS011;37478;55.682;37.462;2024-02-28T01:13:35;11.15;;;4.85;;
51384;SDS011;37478;55.682;37.462;2024-02-28T01:16:00;9.38;;;3.90;;
51384;SDS011;37478;55.682;37.462;2024-02-28T01:18:25;11.63;;;4.30;;
51384;SDS011;37478;55.682;37.462;2024-02-28T01:20:51;8.75;;;4.28;;
51384;SDS011;37478;55.682;37.462;2024-02-28T01:23:19;8.30;;;4.25;;
51384;SDS011;37478;55.682;37.462;2024-02-28T01:25:44;8.57;;;3.47;;
51384;SDS011;37478;55.682;37.462;2024-02-28T01:28:09;9.15;;;4.30;;
51384;SDS011;37478;55.682;37.462;2024-02-28T01:30:35;7.85;;;4.13;;
51384;SDS011;37478;55.682;37.462;2024-02-28T01:33:00;10.23;;;4.40;;
51384;SDS011;37478;55.682;37.462;2024-02-28T01:35:25;11.60;;;4.93;;
51384;SDS011;37478;55.682;37.462;2024-02-28T01:37:51;13.32;;;4.60;;
51384;SDS011;37478;55.682;37.462;2024-02-28T01:40:16;12.77;;;4.93;;
51384;SDS011;37478;55.682;37.462;2024-02-28T01:42:42;11.82;;;6.43;;
51384;SDS011;37478;55.682;37.462;2024-02-28T01:45:08;12.20;;;5.63;;
51384;SDS011;37478;55.682;37.462;2024-02-28T01:47:35;12.73;;;4.55;;
51384;SDS011;37478;55.682;37.462;2024-02-28T01:50:00;11.10;;;4.88;;
51384;SDS011;37478;55.682;37.462;2024-02-28T01:52:25;14.65;;;5.10;;
51384;SDS011;37478;55.682;37.462;2024-02-28T01:54:51;11.00;;;4.93;;
51384;SDS011;37478;55.682;37.462;2024-02-28T01:57:16;14.05;;;5.25;;
51384;SDS011;37478;55.682;37.462;2024-02-28T01:59:42;8.43;;;4.47;;
51384;SDS011;37478;55.682;37.462;2024-02-28T02:02:07;8.77;;;4.90;;
51384;SDS011;37478;55.682;37.462;2024-02-28T02:04:33;12.60;;;5.07;;
51384;SDS011;37478;55.682;37.462;2024-02-28T02:06:58;9.93;;;4.82;;
51384;SDS011;37478;55.682;37.462;2024-02-28T02:09:25;10.88;;;4.95;;
51384;SDS011;37478;55.682;37.462;2024-02-28T02:11:51;13.43;;;4.68;;
51384;SDS011;37478;55.682;37.462;2024-02-28T02:14:16;9.15;;;4.03;;
51384;SDS011;37478;55.682;37.462;2024-02-28T02:16:41;6.80;;;4.43;;
51384;SDS011;37478;55.682;37.462;2024-02-28T02:19:08;14.65;;;5.90;;
51384;SDS011;37478;55.682;37.462;2024-02-28T02:21:57;11.18;;;4.90;;
51384;SDS011;37478;55.682;37.462;2024-02-28T02:24:19;11.50;;;5.35;;
51384;SDS011;37478;55.682;37.462;2024-02-28T02:26:44;11.90;;;4.80;;
51384;SDS011;37478;55.682;37.462;2024-02-28T02:29:11;6.95;;;4.07;;
51384;SDS011;37478;55.682;37.462;2024-02-28T02:31:37;10.90;;;4.72;;
51384;SDS011;37478;55.682;37.462;2024-02-28T02:34:02;8.98;;;4.63;;
51384;SDS011;37478;55.682;37.462;2024-02-28T02:36:27;10.27;;;5.22;;
51384;SDS011;37478;55.682;37.462;2024-02-28T02:38:53;9.55;;;3.85;;
51384;SDS011;37478;55.682;37.462;2024-02-28T02:41:18;9.60;;;4.55;;
51384;SDS011;37478;55.682;37.462;2024-02-28T02:43:44;7.18;;;3.67;;
51384;SDS011;37478;55.682;37.462;2024-02-28T02:46:09;8.63;;;4.25;;
51384;SDS011;37478;55.682;37.462;2024-02-28T02:48:35;12.15;;;4.63;;
51384;SDS011;37478;55.682;37.462;2024-02-28T02:51:00;9.73;;;4.80;;
51384;SDS011;37478;55.682;37.462;2024-02-28T02:53:25;9.77;;;4.50;;
51384;SDS011;37478;55.682;37.462;2024-02-28T02:55:51;8.80;;;5.68;;
51384;SDS011;37478;55.682;37.462;2024-02-28T02:58:16;8.48;;;4.43;;
51384;SDS011;37478;55.682;37.462;2024-02-28T03:00:41;13.82;;;4.72;;
51384;SDS011;37478;55.682;37.462;2024-02-28T03:03:07;9.52;;;4.75;;
51384;SDS011;37478;55.682;37.462;2024-02-28T03:05:32;13.73;;;5.28;;
51384;SDS011;37478;55.682;37.462;2024-02-28T03:07:57;13.25;;;5.10;;
51384;SDS011;37478;55.682;37.462;2024-02-28T03:10:23;10.10;;;4.70;;
51384;SDS011;37478;55.682;37.462;2024-02-28T03:12:48;11.95;;;5.07;;
51384;SDS011;37478;55.682;37.462;2024-02-28T03:15:13;12.50;;;4.90;;
51384;SDS011;37478;55.682;37.462;2024-02-28T03:17:39;11.57;;;5.47;;
51384;SDS011;37478;55.682;37.462;2024-02-28T03:20:04;13.32;;;4.65;;
51384;SDS011;37478;55.682;37.462;2024-02-28T03:22:32;11.20;;;5.53;;
51384;SDS011;37478;55.682;37.462;2024-02-28T03:24:57;15.15;;;5.43;;
51384;SDS011;37478;55.682;37.462;2024-02-28T03:27:22;12.48;;;5.10;;
51384;SDS011;37478;55.682;37.462;2024-02-28T03:29:48;10.90;;;5.65;;
51384;SDS011;37478;55.682;37.462;2024-02-28T03:32:13;10.13;;;4.90;;
51384;SDS011;37478;55.682;37.462;2024-02-28T03:34:39;11.07;;;5.32;;
51384;SDS011;37478;55.682;37.462;2024-02-28T03:37:05;9.82;;;4.95;;
51384;SDS011;37478;55.682;37.462;2024-02-28T03:39:30;10.95;;;4.60;;
51384;SDS011;37478;55.682;37.462;2024-02-28T03:41:55;8.98;;;5.10;;
51384;SDS011;37478;55.682;37.462;2024-02-28T03:44:21;13.05;;;5.22;;
51384;SDS011;37478;55.682;37.462;2024-02-28T03:46:47;12.07;;;4.38;;
51384;SDS011;37478;55.682;37.462;2024-02-28T03:49:12;11.38;;;5.20;;
51384;SDS011;37478;55.682;37.462;2024-02-28T03:51:40;9.65;;;5.50;;
51384;SDS011;37478;55.682;37.462;2024-02-28T03:54:06;10.88;;;5.10;;
51384;SDS011;37478;55.682;37.462;2024-02-28T03:56:31;10.90;;;4.57;;
51384;SDS011;37478;55.682;37.462;2024-02-28T03:58:56;18.10;;;5.82;;
51384;SDS011;37478;55.682;37.462;2024-02-28T04:01:22;14.43;;;5.25;;
51384;SDS011;37478;55.682;37.462;2024-02-28T04:03:47;12.70;;;5.60;;
51384;SDS011;37478;55.682;37.462;2024-02-28T04:06:13;12.05;;;5.75;;
51384;SDS011;37478;55.682;37.462;2024-02-28T04:08:40;5.82;;;4.07;;
51384;SDS011;37478;55.682;37.462;2024-02-28T04:11:05;10.18;;;5.00;;
51384;SDS011;37478;55.682;37.462;2024-02-28T04:13:30;9.30;;;4.50;;
51384;SDS011;37478;55.682;37.462;2024-02-28T04:15:56;10.80;;;5.00;;
51384;SDS011;37478;55.682;37.462;2024-02-28T04:18:22;15.65;;;5.97;;
51384;SDS011;37478;55.682;37.462;2024-02-28T04:20:47;13.80;;;6.13;;
51384;SDS011;37478;55.682;37.462;2024-02-28T04:23:12;12.55;;;5.88;;
51384;SDS011;37478;55.682;37.462;2024-02-28T04:25:38;9.80;;;4.25;;
51384;SDS011;37478;55.682;37.462;2024-02-28T04:28:05;12.07;;;5.45;;
51384;SDS011;37478;55.682;37.462;2024-02-28T04:30:31;13.95;;;5.30;;
51384;SDS011;37478;55.682;37.462;2024-02-28T04:32:56;9.70;;;4.47;;
51384;SDS011;37478;55.682;37.462;2024-02-28T04:35:21;9.43;;;5.00;;
51384;SDS011;37478;55.682;37.462;2024-02-28T04:37:47;12.57;;;5.30;;
51384;SDS011;37478;55.682;37.462;2024-02-28T04:40:12;11.15;;;5.20;;
51384;SDS011;37478;55.682;37.462;2024-02-28T04:42:37;8.23;;;4.25;;
51384;SDS011;37478;55.682;37.462;2024-02-28T04:45:03;10.23;;;4.72;;
51384;SDS011;37478;55.682;37.462;2024-02-28T04:47:28;9.77;;;4.85;;
51384;SDS011;37478;55.682;37.462;2024-02-28T04:49:54;10.98;;;5.50;;
51384;SDS011;37478;55.682;37.462;2024-02-28T04:52:19;10.70;;;4.75;;
51384;SDS011;37478;55.682;37.462;2024-02-28T04:54:45;7.97;;;5.03;;
51384;SDS011;37478;55.682;37.462;2024-02-28T04:57:10;6.57;;;4.07;;
51384;SDS011;37478;55.682;37.462;2024-02-28T04:59:36;14.13;;;6.35;;
51384;SDS011;37478;55.682;37.462;2024-02-28T05:02:01;13.38;;;5.70;;
51384;SDS011;37478;55.682;37.462;2024-02-28T05:04:27;20.27;;;6.63;;
51384;SDS011;37478;55.682;37.462;2024-02-28T05:06:52;11.38;;;4.72;;
51384;SDS011;37478;55.682;37.462;2024-02-28T05:09:17;9.45;;;4.93;;
51384;SDS011;37478;55.682;37.462;2024-02-28T05:11:43;13.85;;;5.38;;
51384;SDS011;37478;55.682;37.462;2024-02-28T05:14:09;12.23;;;5.72;;
51384;SDS011;37478;55.682;37.462;2024-02-28T05:16:35;11.43;;;5.47;;
51384;SDS011;37478;55.682;37.462;2024-02-28T05:19:01;15.23;;;5.72;;
51384;SDS011;37478;55.682;37.462;2024-02-28T05:21:26;9.57;;;5.20;;
51384;SDS011;37478;55.682;37.462;2024-02-28T05:23:51;11.93;;;4.95;;
51384;SDS011;37478;55.682;37.462;2024-02-28T05:26:17;10.13;;;4.90;;
51384;SDS011;37478;55.682;37.462;2024-02-28T05:28:42;10.73;;;5.45;;
51384;SDS011;37478;55.682;37.462;2024-02-28T05:31:24;8.95;;;4.88;;
51384;SDS011;37478;55.682;37.462;2024-02-28T05:33:53;10.02;;;5.10;;
51384;SDS011;37478;55.682;37.462;2024-02-28T05:36:19;10.85;;;6.35;;
51384;SDS011;37478;55.682;37.462;2024-02-28T05:38:44;10.50;;;4.53;;
51384;SDS011;37478;55.682;37.462;2024-02-28T05:41:10;11.88;;;4.15;;
51384;SDS011;37478;55.682;37.462;2024-02-28T05:43:38;10.82;;;6.50;;
51384;SDS011;37478;55.682;37.462;2024-02-28T05:46:03;15.23;;;5.38;;
51384;SDS011;37478;55.682;37.462;2024-02-28T05:48:29;13.55;;;5.72;;
51384;SDS011;37478;55.682;37.462;2024-02-28T05:50:54;15.38;;;5.68;;
51384;SDS011;37478;55.682;37.462;2024-02-28T05:53:19;13.38;;;5.95;;
51384;SDS011;37478;55.682;37.462;2024-02-28T05:55:45;11.57;;;4.45;;
51384;SDS011;37478;55.682;37.462;2024-02-28T05:58:10;22.63;;;5.47;;
51384;SDS011;37478;55.682;37.462;2024-02-28T06:00:36;7.38;;;4.57;;
51384;SDS011;37478;55.682;37.462;2024-02-28T06:03:02;12.63;;;4.78;;
51384;SDS011;37478;55.682;37.462;2024-02-28T06:05:28;22.88;;;6.25;;
51384;SDS011;37478;55.682;37.462;2024-02-28T06:07:53;11.10;;;5.25;;
51384;SDS011;37478;55.682;37.462;2024-02-28T06:10:18;9.00;;;4.60;;
51384;SDS011;37478;55.682;37.462;2024-02-28T06:12:46;9.30;;;4.90;;
51384;SDS011;37478;55.682;37.462;2024-02-28T06:15:11;10.88;;;5.40;;
51384;SDS011;37478;55.682;37.462;2024-02-28T06:17:36;9.07;;;4.20;;
51384;SDS011;37478;55.682;37.462;2024-02-28T06:20:02;15.05;;;5.30;;
51384;SDS011;37478;55.682;37.462;2024-02-28T06:22:27;9.20;;;5.35;;
51384;SDS011;37478;55.682;37.462;2024-02-28T06:24:53;11.40;;;5.35;;
51384;SDS011;37478;55.682;37.462;2024-02-28T06:27:18;11.32;;;5.07;;
51384;SDS011;37478;55.682;37.462;2024-02-28T06:29:43;13.30;;;5.25;;
51384;SDS011;37478;55.682;37.462;2024-02-28T06:32:09;10.98;;;5.72;;
51384;SDS011;37478;55.682;37.462;2024-02-28T06:34:34;12.63;;;6.20;;
51384;SDS011;37478;55.682;37.462;2024-02-28T06:37:00;8.52;;;5.10;;
51384;SDS011;37478;55.682;37.462;2024-02-28T06:39:25;9.77;;;4.75;;
51384;SDS011;37478;55.682;37.462;2024-02-28T06:41:50;10.43;;;5.88;;
51384;SDS011;37478;55.682;37.462;2024-02-28T06:44:19;15.98;;;5.43;;
51384;SDS011;37478;55.682;37.462;2024-02-28T06:46:44;15.65;;;5.20;;
51384;SDS011;37478;55.682;37.462;2024-02-28T06:49:10;10.18;;;4.95;;
51384;SDS011;37478;55.682;37.462;2024-02-28T06:51:35;12.32;;;6.53;;
51384;SDS011;37478;55.682;37.462;2024-02-28T06:54:01;15.32;;;5.50;;
51384;SDS011;37478;55.682;37.462;2024-02-28T06:56:26;15.68;;;5.32;;
51384;SDS011;37478;55.682;37.462;2024-02-28T06:58:51;11.43;;;6.50;;
51384;SDS011;37478;55.682;37.462;2024-02-28T07:01:17;14.15;;;5.25;;
51384;SDS011;37478;55.682;37.462;2024-02-28T07:03:42;8.90;;;5.13;;
51384;SDS011;37478;55.682;37.462;2024-02-28T07:06:08;15.90;;;5.82;;
51384;SDS011;37478;55.682;37.462;2024-02-28T07:08:33;12.07;;;5.50;;
51384;SDS011;37478;55.682;37.462;2024-02-28T07:10:58;13.93;;;5.03;;
51384;SDS011;37478;55.682;37.462;2024-02-28T07:13:24;11.93;;;5.60;;
51384;SDS011;37478;55.682;37.462;2024-02-28T07:15:49;10.88;;;5.07;;
51384;SDS011;37478;55.682;37.462;2024-02-28T07:18:15;9.90;;;4.82;;
51384;SDS011;37478;55.682;37.462;2024-02-28T07:20:40;9.13;;;4.68;;
51384;SDS011;37478;55.682;37.462;2024-02-28T07:23:05;9.27;;;4.80;;
51384;SDS011;37478;55.682;37.462;2024-02-28T07:25:31;10.82;;;5.68;;
51384;SDS011;37478;55.682;37.462;2024-02-28T07:27:57;12.07;;;5.35;;
51384;SDS011;37478;55.682;37.462;2024-02-28T07:30:24;14.35;;;4.85;;
51384;SDS011;37478;55.682;37.462;2024-02-28T07:32:49;18.58;;;5.97;;
51384;SDS011;37478;55.682;37.462;2024-02-28T07:35:15;10.80;;;5.25;;
51384;SDS011;37478;55.682;37.462;2024-02-28T07:37:40;10.57;;;5.03;;
51384;SDS011;37478;55.682;37.462;2024-02-28T07:40:06;14.02;;;5.20;;
51384;SDS011;37478;55.682;37.462;2024-02-28T07:42:33;12.65;;;4.50;;
51384;SDS011;37478;55.682;37.462;2024-02-28T07:45:00;16.75;;;6.85;;
51384;SDS011;37478;55.682;37.462;2024-02-28T07:47:25;12.68;;;5.28;;
51384;SDS011;37478;55.682;37.462;2024-02-28T07:49:51;9.98;;;5.50;;
51384;SDS011;37478;55.682;37.462;2024-02-28T07:52:16;9.40;;;4.78;;
51384;SDS011;37478;55.682;37.462;2024-02-28T07:54:42;15.93;;;5.25;;
51384;SDS011;37478;55.682;37.462;2024-02-28T07:57:10;11.07;;;5.47;;
51384;SDS011;37478;55.682;37.462;2024-02-28T07:59:39;9.73;;;5.60;;
51384;SDS011;37478;55.682;37.462;2024-02-28T08:02:05;11.60;;;5.40;;
51384;SDS011;37478;55.682;37.462;2024-02-28T08:04:31;10.50;;;5.43;;
51384;SDS011;37478;55.682;37.462;2024-02-28T08:06:56;9.80;;;4.82;;
51384;SDS011;37478;55.682;37.462;2024-02-28T08:09:22;10.82;;;5.53;;
51384;SDS011;37478;55.682;37.462;2024-02-28T08:11:47;9.18;;;5.57;;
51384;SDS011;37478;55.682;37.462;2024-02-28T08:14:13;10.25;;;5.55;;
51384;SDS011;37478;55.682;37.462;2024-02-28T08:16:38;8.55;;;5.60;;
51384;SDS011;37478;55.682;37.462;2024-02-28T08:19:04;13.23;;;5.63;;
51384;SDS011;37478;55.682;37.462;2024-02-28T08:21:29;12.10;;;5.35;;
51384;SDS011;37478;55.682;37.462;2024-02-28T08:23:54;10.48;;;5.55;;
51384;SDS011;37478;55.682;37.462;2024-02-28T08:26:20;8.52;;;4.78;;
51384;SDS011;37478;55.682;37.462;2024-02-28T08:28:45;11.55;;;5.60;;
51384;SDS011;37478;55.682;37.462;2024-02-28T08:31:10;11.13;;;5.25;;
51384;SDS011;37478;55.682;37.462;2024-02-28T08:33:36;15.93;;;5.82;;
51384;SDS011;37478;55.682;37.462;2024-02-28T08:36:01;10.05;;;4.93;;
51384;SDS011;37478;55.682;37.462;2024-02-28T08:38:27;11.07;;;4.90;;
51384;SDS011;37478;55.682;37.462;2024-02-28T08:40:52;10.60;;;5.03;;
51384;SDS011;37478;55.682;37.462;2024-02-28T08:43:17;9.38;;;5.20;;
51384;SDS011;37478;55.682;37.462;2024-02-28T08:45:43;12.77;;;5.68;;
51384;SDS011;37478;55.682;37.462;2024-02-28T08:48:08;20.55;;;5.55;;
51384;SDS011;37478;55.682;37.462;2024-02-28T08:50:33;10.63;;;5.40;;
51384;SDS011;37478;55.682;37.462;2024-02-28T08:52:59;13.93;;;5.80;;
51384;SDS011;37478;55.682;37.462;2024-02-28T08:55:24;10.55;;;6.22;;
51384;SDS011;37478;55.682;37.462;2024-02-28T08:57:49;12.75;;;5.25;;
51384;SDS011;37478;55.682;37.462;2024-02-28T09:00:15;8.77;;;4.95;;
51384;SDS011;37478;55.682;37.462;2024-02-28T09:02:40;12.13;;;5.00;;
51384;SDS011;37478;55.682;37.462;2024-02-28T09:05:06;16.85;;;5.20;;
51384;SDS011;37478;55.682;37.462;2024-02-28T09:07:31;11.77;;;5.68;;
51384;SDS011;37478;55.682;37.462;2024-02-28T09:09:57;9.43;;;4.93;;
51384;SDS011;37478;55.682;37.462;2024-02-28T09:12:22;12.30;;;5.68;;
51384;SDS011;37478;55.682;37.462;2024-02-28T09:14:47;12.65;;;5.90;;
51384;SDS011;37478;55.682;37.462;2024-02-28T09:17:19;9.43;;;4.88;;
51384;SDS011;37478;55.682;37.462;2024-02-28T09:19:45;14.98;;;5.38;;
51384;SDS011;37478;55.682;37.462;2024-02-28T09:22:10;11.25;;;4.95;;
51384;SDS011;37478;55.682;37.462;2024-02-28T09:24:36;9.45;;;4.35;;
51384;SDS011;37478;55.682;37.462;2024-02-28T09:27:02;13.00;;;5.63;;
51384;SDS011;37478;55.682;37.462;2024-02-28T09:29:28;13.02;;;6.07;;
51384;SDS011;37478;55.682;37.462;2024-02-28T09:31:53;11.10;;;5.05;;
51384;SDS011;37478;55.682;37.462;2024-02-28T09:34:19;9.02;;;5.65;;
51384;SDS011;37478;55.682;37.462;2024-02-28T09:36:44;10.23;;;5.70;;
51384;SDS011;37478;55.682;37.462;2024-02-28T09:39:12;10.38;;;6.13;;
51384;SDS011;37478;55.682;37.462;2024-02-28T09:41:38;13.20;;;6.32;;
51384;SDS011;37478;55.682;37.462;2024-02-28T09:44:03;12.57;;;5.80;;
51384;SDS011;37478;55.682;37.462;2024-02-28T09:46:31;10.73;;;5.15;;
51384;SDS011;37478;55.682;37.462;2024-02-28T09:48:58;13.77;;;5.85;;
51384;SDS011;37478;55.682;37.462;2024-02-28T09:51:24;10.55;;;6.20;;
51384;SDS011;37478;55.682;37.462;2024-02-28T09:53:50;11.70;;;5.30;;
51384;SDS011;37478;55.682;37.462;2024-02-28T09:56:16;14.95;;;6.68;;
51384;SDS011;37478;55.682;37.462;2024-02-28T09:58:41;10.40;;;5.05;;
51384;SDS011;37478;55.682;37.462;2024-02-28T10:01:07;13.20;;;6.43;;
51384;SDS011;37478;55.682;37.462;2024-02-28T10:03:34;12.75;;;5.68;;
51384;SDS011;37478;55.682;37.462;2024-02-28T10:06:00;8.93;;;6.18;;
51384;SDS011;37478;55.682;37.462;2024-02-28T10:08:26;10.13;;;6.00;;
51384;SDS011;37478;55.682;37.462;2024-02-28T10:10:51;22.30;;;5.78;;
51384;SDS011;37478;55.682;37.462;2024-02-28T10:13:21;14.68;;;5.40;;
51384;SDS011;37478;55.682;37.462;2024-02-28T10:15:47;14.10;;;6.97;;
51384;SDS011;37478;55.682;37.462;2024-02-28T10:18:12;11.77;;;5.70;;
51384;SDS011;37478;55.682;37.462;2024-02-28T10:20:38;12.52;;;5.72;;
51384;SDS011;37478;55.682;37.462;2024-02-28T10:23:06;10.90;;;5.43;;
51384;SDS011;37478;55.682;37.462;2024-02-28T10:25:41;13.43;;;5.70;;
51384;SDS011;37478;55.682;37.462;2024-02-28T10:28:07;15.27;;;6.68;;
51384;SDS011;37478;55.682;37.462;2024-02-28T10:30:32;11.32;;;6.03;;
51384;SDS011;37478;55.682;37.462;2024-02-28T10:32:57;11.77;;;6.75;;
51384;SDS011;37478;55.682;37.462;2024-02-28T10:35:22;14.35;;;6.38;;
51384;SDS011;37478;55.682;37.462;2024-02-28T10:37:52;12.65;;;5.85;;
51384;SDS011;37478;55.682;37.462;2024-02-28T10:40:19;10.13;;;6.03;;
51384;SDS011;37478;55.682;37.462;2024-02-28T10:42:47;16.10;;;5.95;;
51384;SDS011;37478;55.682;37.462;2024-02-28T10:45:12;13.68;;;7.35;;
51384;SDS011;37478;55.682;37.462;2024-02-28T10:47:38;14.70;;;7.30;;
51384;SDS011;37478;55.682;37.462;2024-02-28T10:50:04;24.80;;;7.07;;
51384;SDS011;37478;55.682;37.462;2024-02-28T10:52:29;14.60;;;6.93;;
51384;SDS011;37478;55.682;37.462;2024-02-28T10:54:58;16.08;;;6.93;;
51384;SDS011;37478;55.682;37.462;2024-02-28T10:57:25;13.00;;;6.53;;
51384;SDS011;37478;55.682;37.462;2024-02-28T10:59:51;16.60;;;7.32;;
51384;SDS011;37478;55.682;37.462;2024-02-28T11:02:17;14.32;;;6.88;;
51384;SDS011;37478;55.682;37.462;2024-02-28T11:04:42;15.75;;;7.00;;
51384;SDS011;37478;55.682;37.462;2024-02-28T11:07:08;14.48;;;6.80;;
51384;SDS011;37478;55.682;37.462;2024-02-28T11:09:33;15.38;;;7.05;;
51384;SDS011;37478;55.682;37.462;2024-02-28T11:11:59;13.88;;;6.50;;
51384;SDS011;37478;55.682;37.462;2024-02-28T11:14:24;10.93;;;6.35;;
51384;SDS011;37478;55.682;37.462;2024-02-28T11:17:01;12.85;;;6.15;;
51384;SDS011;37478;55.682;37.462;2024-02-28T11:19:28;16.15;;;6.38;;
51384;SDS011;37478;55.682;37.462;2024-02-28T11:21:53;14.52;;;6.63;;
51384;SDS011;37478;55.682;37.462;2024-02-28T11:24:22;14.23;;;6.80;;
51384;SDS011;37478;55.682;37.462;2024-02-28T11:26:47;15.68;;;7.50;;
51384;SDS011;37478;55.682;37.462;2024-02-28T11:29:13;11.65;;;6.65;;
51384;SDS011;37478;55.682;37.462;2024-02-28T11:31:38;13.30;;;6.10;;
51384;SDS011;37478;55.682;37.462;2024-02-28T11:34:03;14.02;;;7.15;;
51384;SDS011;37478;55.682;37.462;2024-02-28T11:36:30;21.08;;;7.45;;
51384;SDS011;37478;55.682;37.462;2024-02-28T11:38:56;16.45;;;6.57;;
51384;SDS011;37478;55.682;37.462;2024-02-28T11:41:26;16.77;;;5.85;;
51384;SDS011;37478;55.682;37.462;2024-02-28T11:43:52;12.02;;;7.20;;
51384;SDS011;37478;55.682;37.462;2024-02-28T11:46:18;15.40;;;6.60;;
51384;SDS011;37478;55.682;37.462;2024-02-28T11:48:43;19.80;;;7.07;;
51384;SDS011;37478;55.682;37.462;2024-02-28T11:51:10;12.63;;;7.47;;
51384;SDS011;37478;55.682;37.462;2024-02-28T11:53:35;13.40;;;6.95;;
51384;SDS011;37478;55.682;37.462;2024-02-28T11:56:01;14.77;;;6.50;;
51384;SDS011;37478;55.682;37.462;2024-02-28T11:58:26;14.90;;;6.55;;
51384;SDS011;37478;55.682;37.462;2024-02-28T12:00:52;21.30;;;5.90;;
51384;SDS011;37478;55.682;37.462;2024-02-28T12:03:23;20.33;;;8.07;;
51384;SDS011;37478;55.682;37.462;2024-02-28T12:05:49;10.35;;;5.72;;
51384;SDS011;37478;55.682;37.462;2024-02-28T12:08:16;11.85;;;5.57;;
51384;SDS011;37478;55.682;37.462;2024-02-28T12:10:42;14.82;;;6.95;;
51384;SDS011;37478;55.682;37.462;2024-02-28T12:13:07;22.30;;;8.10;;
51384;SDS011;37478;55.682;37.462;2024-02-28T12:15:34;16.58;;;8.45;;
51384;SDS011;37478;55.682;37.462;2024-02-28T12:17:59;12.52;;;6.05;;
51384;SDS011;37478;55.682;37.462;2024-02-28T12:20:25;16.63;;;7.65;;
51384;SDS011;37478;55.682;37.462;2024-02-28T12:22:50;11.32;;;6.57;;
51384;SDS011;37478;55.682;37.462;2024-02-28T12:25:16;13.88;;;6.20;;
51384;SDS011;37478;55.682;37.462;2024-02-28T12:27:41;13.10;;;6.88;;
51384;SDS011;37478;55.682;37.462;2024-02-28T12:30:07;17.52;;;6.20;;
51384;SDS011;37478;55.682;37.462;2024-02-28T12:32:32;16.08;;;6.75;;
51384;SDS011;37478;55.682;37.462;2024-02-28T12:34:58;9.63;;;6.43;;
51384;SDS011;37478;55.682;37.462;2024-02-28T12:37:23;12.15;;;6.75;;
51384;SDS011;37478;55.682;37.462;2024-02-28T12:39:48;16.35;;;7.40;;
51384;SDS011;37478;55.682;37.462;2024-02-28T12:42:14;14.40;;;6.95;;
51384;SDS011;37478;55.682;37.462;2024-02-28T12:44:39;15.07;;;7.75;;
51384;SDS011;37478;55.682;37.462;2024-02-28T12:47:05;16.58;;;6.72;;
51384;SDS011;37478;55.682;37.462;2024-02-28T12:49:31;9.48;;;6.30;;
51384;SDS011;37478;55.682;37.462;2024-02-28T12:51:56;14.43;;;7.45;;
51384;SDS011;37478;55.682;37.462;2024-02-28T12:54:22;14.10;;;6.60;;
51384;SDS011;37478;55.682;37.462;2024-02-28T12:56:47;14.98;;;6.78;;
51384;SDS011;37478;55.682;37.462;2024-02-28T12:59:13;17.52;;;6.20;;
51384;SDS011;37478;55.682;37.462;2024-02-28T13:01:38;11.48;;;5.72;;
51384;SDS011;37478;55.682;37.462;2024-02-28T13:04:03;17.33;;;7.68;;
51384;SDS011;37478;55.682;37.462;2024-02-28T13:06:29;10.43;;;5.63;;
51384;SDS011;37478;55.682;37.462;2024-02-28T13:08:54;9.70;;;6.38;;
51384;SDS011;37478;55.682;37.462;2024-02-28T13:11:20;12.13;;;5.88;;
51384;SDS011;37478;55.682;37.462;2024-02-28T13:13:46;17.60;;;6.97;;
51384;SDS011;37478;55.682;37.462;2024-02-28T13:16:12;13.65;;;5.38;;
51384;SDS011;37478;55.682;37.462;2024-02-28T13:18:37;11.13;;;6.00;;
51384;SDS011;37478;55.682;37.462;2024-02-28T13:21:03;9.68;;;5.82;;
51384;SDS011;37478;55.682;37.462;2024-02-28T13:23:30;13.15;;;6.32;;
51384;SDS011;37478;55.682;37.462;2024-02-28T13:25:56;33.92;;;7.95;;
51384;SDS011;37478;55.682;37.462;2024-02-28T13:28:21;11.25;;;5.70;;
51384;SDS011;37478;55.682;37.462;2024-02-28T13:30:54;8.60;;;4.97;;
51384;SDS011;37478;55.682;37.462;2024-02-28T13:33:20;10.23;;;5.85;;
51384;SDS011;37478;55.682;37.462;2024-02-28T13:35:45;11.15;;;6.00;;
51384;SDS011;37478;55.682;37.462;2024-02-28T13:38:10;12.85;;;5.72;;
51384;SDS011;37478;55.682;37.462;2024-02-28T13:40:36;14.82;;;6.72;;
51384;SDS011;37478;55.682;37.462;2024-02-28T13:43:02;13.57;;;5.80;;
51384;SDS011;37478;55.682;37.462;2024-02-28T13:45:27;11.98;;;5.97;;
51384;SDS011;37478;55.682;37.462;2024-02-28T13:47:52;14.50;;;6.38;;
51384;SDS011;37478;55.682;37.462;2024-02-28T13:50:18;12.07;;;6.00;;
51384;SDS011;37478;55.682;37.462;2024-02-28T13:52:43;11.13;;;5.47;;
51384;SDS011;37478;55.682;37.462;2024-02-28T13:55:09;12.15;;;6.45;;
51384;SDS011;37478;55.682;37.462;2024-02-28T13:57:35;11.38;;;5.60;;
51384;SDS011;37478;55.682;37.462;2024-02-28T14:00:00;18.02;;;5.60;;
51384;SDS011;37478;55.682;37.462;2024-02-28T14:02:25;12.50;;;6.25;;
51384;SDS011;37478;55.682;37.462;2024-02-28T14:04:54;15.93;;;6.53;;
51384;SDS011;37478;55.682;37.462;2024-02-28T14:07:20;12.57;;;5.60;;
51384;SDS011;37478;55.682;37.462;2024-02-28T14:09:45;12.07;;;6.13;;
51384;SDS011;37478;55.682;37.462;2024-02-28T14:12:11;16.55;;;6.20;;
51384;SDS011;37478;55.682;37.462;2024-02-28T14:14:36;10.57;;;5.95;;
51384;SDS011;37478;55.682;37.462;2024-02-28T14:17:02;14.88;;;6.50;;